Time;durP1;ratioP1;P1;durP2;ratioP2;P2;SDS_P1;SDS_P2;PMS_P1;PMS_P2;Temp;Humidity;BMP_temperature;BMP_pressure;BME280_temperature;BME280_humidity;BME280_pressure;Samples;Min_cycle;Max_cycle;Signal;HPM_P1;HPM_P2
2022/09/07 00:00:38;;;;;;;15.23;2.35;;;16.00;99.90;;;;;;4955027;28;20040;-57
2022/09/07 00:03:05;;;;;;;9.50;2.50;;;15.90;99.90;;;;;;4937055;29;20055;-56
2022/09/07 00:05:32;;;;;;;9.43;1.90;;;15.90;99.90;;;;;;4954119;29;20074;-55
2022/09/07 00:07:59;;;;;;;10.55;1.92;;;15.90;99.90;;;;;;4954079;29;20047;-57
2022/09/07 00:10:25;;;;;;;10.98;1.90;;;15.90;99.90;;;;;;4955422;28;20479;-57
2022/09/07 00:12:52;;;;;;;8.30;1.48;;;15.90;99.90;;;;;;4955227;28;20079;-57
2022/09/07 00:15:19;;;;;;;13.73;1.70;;;15.90;99.90;;;;;;4954479;28;20102;-56
2022/09/07 00:17:46;;;;;;;11.02;2.17;;;15.80;99.90;;;;;;4955290;28;20047;-58
2022/09/07 00:20:13;;;;;;;10.77;1.58;;;15.80;99.90;;;;;;4953888;28;20043;-58
2022/09/07 00:22:40;;;;;;;9.82;1.88;;;15.80;99.90;;;;;;4955220;29;20043;-56
2022/09/07 00:25:07;;;;;;;14.93;2.10;;;15.80;99.90;;;;;;4955413;29;20475;-57
2022/09/07 00:27:34;;;;;;;9.98;1.98;;;15.80;99.90;;;;;;4954395;29;20050;-57
2022/09/07 00:30:00;;;;;;;8.13;1.85;;;15.80;99.90;;;;;;4955190;28;20047;-57
2022/09/07 00:32:27;;;;;;;9.38;1.58;;;15.80;99.90;;;;;;4955177;28;20128;-57
2022/09/07 00:34:54;;;;;;;11.13;1.88;;;15.80;99.90;;;;;;4955714;28;20050;-55
2022/09/07 00:37:21;;;;;;;10.93;1.83;;;15.80;99.90;;;;;;4955131;28;20043;-57
2022/09/07 00:39:48;;;;;;;11.63;1.80;;;15.80;99.90;;;;;;4954474;28;20459;-55
2022/09/07 00:42:15;;;;;;;14.50;2.65;;;15.80;99.90;;;;;;4954747;28;20043;-57
2022/09/07 00:44:42;;;;;;;13.43;1.88;;;15.80;99.90;;;;;;4955598;28;20039;-58
2022/09/07 00:47:08;;;;;;;6.55;1.48;;;15.80;99.90;;;;;;4954421;29;20047;-57
2022/09/07 00:49:35;;;;;;;9.95;2.03;;;15.80;99.90;;;;;;4955464;28;20483;-55
2022/09/07 00:52:02;;;;;;;11.88;1.98;;;15.80;99.90;;;;;;4955131;28;20471;-58
2022/09/07 00:54:29;;;;;;;9.75;1.90;;;15.80;99.90;;;;;;4954232;28;20046;-55
2022/09/07 00:56:56;;;;;;;13.25;2.10;;;15.80;99.90;;;;;;4955375;28;20469;-58
2022/09/07 00:59:22;;;;;;;10.43;1.70;;;15.90;99.90;;;;;;4955163;28;20051;-55
2022/09/07 01:01:49;;;;;;;8.50;1.70;;;15.80;99.90;;;;;;4954819;28;20094;-55
2022/09/07 01:04:16;;;;;;;13.38;2.20;;;15.80;99.90;;;;;;4954731;28;20050;-56
2022/09/07 01:06:43;;;;;;;11.48;1.98;;;15.80;99.90;;;;;;4953867;28;20043;-58
2022/09/07 01:09:10;;;;;;;7.97;1.92;;;15.80;99.90;;;;;;4955373;28;20036;-58
2022/09/07 01:11:37;;;;;;;13.07;1.95;;;15.80;99.90;;;;;;4958470;28;20035;-56
2022/09/07 01:14:03;;;;;;;13.13;2.55;;;15.80;99.90;;;;;;4958578;28;20047;-58
2022/09/07 01:16:30;;;;;;;13.55;2.30;;;15.70;99.90;;;;;;4958429;28;20050;-57
2022/09/07 01:18:57;;;;;;;11.40;2.05;;;15.70;99.90;;;;;;4957824;28;20051;-58
2022/09/07 01:21:23;;;;;;;11.55;2.40;;;15.70;99.90;;;;;;4956953;28;20098;-57
2022/09/07 01:23:50;;;;;;;9.07;2.20;;;15.70;99.90;;;;;;4957558;28;20047;-58
2022/09/07 01:26:17;;;;;;;12.35;2.30;;;15.70;99.90;;;;;;4958603;28;20146;-57
2022/09/07 01:28:46;;;;;;;12.07;2.47;;;15.70;99.90;;;;;;4957870;28;20047;-57
2022/09/07 01:31:12;;;;;;;14.00;2.13;;;15.70;99.90;;;;;;4958718;28;20039;-58
2022/09/07 01:33:39;;;;;;;12.98;3.00;;;15.70;99.90;;;;;;4958357;28;20105;-57
2022/09/07 01:36:06;;;;;;;14.05;2.67;;;15.70;99.90;;;;;;4957497;28;20051;-58
2022/09/07 01:38:33;;;;;;;18.35;2.55;;;15.70;99.90;;;;;;4957997;28;20105;-55
2022/09/07 01:40:59;;;;;;;10.25;2.33;;;15.70;99.90;;;;;;4957982;28;20383;-56
2022/09/07 01:43:26;;;;;;;14.35;2.58;;;15.70;99.90;;;;;;4958024;28;20046;-55
2022/09/07 01:45:53;;;;;;;12.57;2.38;;;15.70;99.90;;;;;;4958139;29;20075;-58
2022/09/07 01:48:20;;;;;;;10.10;2.08;;;15.70;99.90;;;;;;4957253;28;20039;-58
2022/09/07 01:50:46;;;;;;;14.55;2.53;;;15.70;99.90;;;;;;4956971;29;20103;-56
2022/09/07 01:53:16;;;;;;;14.65;2.75;;;15.80;99.90;;;;;;4957750;28;20043;-58
2022/09/07 01:55:43;;;;;;;16.52;2.53;;;15.80;99.90;;;;;;4957829;28;20051;-56
2022/09/07 01:58:10;;;;;;;14.13;2.78;;;15.80;99.90;;;;;;4956963;28;20061;-57
2022/09/07 02:00:36;;;;;;;10.57;2.35;;;15.80;99.90;;;;;;4957943;29;20075;-56
2022/09/07 02:03:03;;;;;;;12.00;2.47;;;15.80;99.90;;;;;;4956830;29;20052;-56
2022/09/07 02:05:30;;;;;;;11.27;2.50;;;15.80;99.90;;;;;;4957838;28;20106;-55
2022/09/07 02:07:57;;;;;;;13.82;2.42;;;15.80;99.90;;;;;;4957719;28;20042;-55
2022/09/07 02:10:24;;;;;;;12.45;2.35;;;15.80;99.90;;;;;;4957076;29;20051;-56
2022/09/07 02:12:51;;;;;;;14.18;2.45;;;15.80;99.90;;;;;;4956712;28;20043;-58
2022/09/07 02:15:18;;;;;;;15.55;2.83;;;15.80;99.90;;;;;;4956432;28;20051;-57
2022/09/07 02:17:44;;;;;;;11.93;2.25;;;15.70;99.90;;;;;;4956908;28;20051;-57
2022/09/07 02:20:11;;;;;;;13.95;2.22;;;15.70;99.90;;;;;;4954882;28;20059;-57
2022/09/07 02:22:38;;;;;;;14.60;2.35;;;15.70;99.90;;;;;;4957325;28;20121;-57
2022/09/07 02:25:05;;;;;;;11.70;2.35;;;15.80;99.90;;;;;;4956394;28;20143;-58
2022/09/07 02:27:31;;;;;;;7.88;2.30;;;15.80;99.90;;;;;;4957716;29;20102;-58
2022/09/07 02:29:58;;;;;;;20.35;3.10;;;15.80;99.90;;;;;;4955505;29;20533;-57
2022/09/07 02:32:25;;;;;;;11.38;2.50;;;15.80;99.90;;;;;;4956195;28;20046;-57
2022/09/07 02:34:52;;;;;;;14.45;3.13;;;15.80;99.90;;;;;;4956940;28;20039;-57
2022/09/07 02:37:18;;;;;;;11.55;2.28;;;15.80;99.90;;;;;;4957580;28;20541;-56
2022/09/07 02:39:46;;;;;;;13.38;2.80;;;15.80;99.90;;;;;;4957523;29;20047;-57
2022/09/07 02:42:13;;;;;;;15.50;2.45;;;15.80;99.90;;;;;;4957389;29;20081;-57
2022/09/07 02:44:40;;;;;;;16.40;2.88;;;15.80;99.90;;;;;;4954925;28;20106;-57
2022/09/07 02:47:06;;;;;;;13.07;2.38;;;15.80;99.90;;;;;;4956231;28;20098;-55
2022/09/07 02:49:34;;;;;;;8.65;2.55;;;15.70;99.90;;;;;;4954473;29;20094;-57
2022/09/07 02:52:01;;;;;;;15.10;3.03;;;15.70;99.90;;;;;;4956334;28;20098;-55
2022/09/07 02:54:27;;;;;;;9.27;2.40;;;15.70;99.90;;;;;;4956932;28;20114;-55
2022/09/07 02:56:54;;;;;;;17.48;3.55;;;15.70;99.90;;;;;;4956566;28;20055;-58
2022/09/07 02:59:21;;;;;;;12.52;2.83;;;15.70;99.90;;;;;;4956329;28;20059;-57
2022/09/07 03:01:47;;;;;;;16.15;2.80;;;15.70;99.90;;;;;;4955484;28;20043;-58
2022/09/07 03:04:14;;;;;;;14.27;2.80;;;15.70;99.90;;;;;;4956950;28;20039;-57
2022/09/07 03:06:41;;;;;;;14.13;2.65;;;15.70;99.90;;;;;;4956559;28;20406;-58
2022/09/07 03:09:08;;;;;;;15.85;3.17;;;15.70;99.90;;;;;;4957053;28;20043;-58
2022/09/07 03:11:34;;;;;;;15.65;2.70;;;15.70;99.90;;;;;;4956529;28;20106;-57
2022/09/07 03:14:01;;;;;;;18.85;2.88;;;15.70;99.90;;;;;;4955373;28;20106;-55
2022/09/07 03:16:28;;;;;;;14.60;2.85;;;15.70;99.90;;;;;;4955585;29;20078;-57
2022/09/07 03:18:55;;;;;;;16.40;2.67;;;15.80;99.90;;;;;;4956304;28;20475;-56
2022/09/07 03:21:21;;;;;;;15.95;4.15;;;15.80;99.90;;;;;;4956865;28;20039;-58
2022/09/07 03:23:48;;;;;;;17.42;2.65;;;15.80;99.90;;;;;;4956165;29;20043;-58
2022/09/07 03:26:17;;;;;;;16.52;3.28;;;15.80;99.90;;;;;;4956372;28;20047;-57
2022/09/07 03:28:44;;;;;;;21.20;2.83;;;15.80;99.90;;;;;;4956034;28;20430;-58
2022/09/07 03:31:10;;;;;;;17.08;3.60;;;15.90;99.90;;;;;;4954008;28;20414;-57
2022/09/07 03:33:37;;;;;;;22.23;3.63;;;15.90;99.90;;;;;;4956352;28;20098;-57
2022/09/07 03:36:05;;;;;;;24.50;3.72;;;15.90;99.90;;;;;;4955874;28;20047;-57
2022/09/07 03:38:32;;;;;;;18.77;3.92;;;16.00;99.90;;;;;;4955855;28;20046;-57
2022/09/07 03:40:58;;;;;;;16.60;3.15;;;16.00;99.90;;;;;;4954879;28;20052;-57
2022/09/07 03:43:25;;;;;;;18.65;3.60;;;16.10;99.90;;;;;;4955843;28;20471;-56
2022/09/07 03:45:52;;;;;;;16.70;3.63;;;16.10;99.90;;;;;;4954613;28;20467;-57
2022/09/07 03:48:19;;;;;;;25.70;3.65;;;16.10;99.90;;;;;;4955885;29;20090;-58
2022/09/07 03:50:45;;;;;;;19.25;3.20;;;16.20;99.90;;;;;;4956253;29;20047;-57
2022/09/07 03:53:12;;;;;;;18.33;4.00;;;16.20;99.90;;;;;;4955442;28;20388;-56
2022/09/07 03:55:39;;;;;;;21.58;4.13;;;16.30;99.90;;;;;;4955608;29;20050;-57
2022/09/07 03:58:05;;;;;;;18.33;3.67;;;16.30;99.90;;;;;;4953783;29;20063;-57
2022/09/07 04:00:32;;;;;;;21.73;3.55;;;16.40;99.90;;;;;;4936881;29;20063;-56
2022/09/07 04:02:59;;;;;;;15.57;3.63;;;16.40;99.90;;;;;;4937002;29;20050;-57
2022/09/07 04:05:26;;;;;;;17.35;3.80;;;16.40;99.90;;;;;;4955973;28;20071;-57
2022/09/07 04:07:53;;;;;;;19.52;4.03;;;16.50;99.90;;;;;;4953694;29;20035;-56
2022/09/07 04:10:19;;;;;;;19.55;4.75;;;16.50;99.90;;;;;;4955760;28;20471;-56
2022/09/07 04:12:46;;;;;;;18.08;3.53;;;16.50;99.90;;;;;;4954590;29;20443;-58
2022/09/07 04:15:13;;;;;;;20.80;4.10;;;16.50;99.90;;;;;;4955825;28;20109;-56
2022/09/07 04:17:40;;;;;;;16.58;3.50;;;16.50;99.90;;;;;;4954088;28;20040;-57
2022/09/07 04:20:06;;;;;;;14.68;3.30;;;16.60;99.90;;;;;;4954999;28;20039;-58
2022/09/07 04:22:33;;;;;;;18.02;3.80;;;16.60;99.90;;;;;;4953454;28;20046;-57
2022/09/07 04:25:00;;;;;;;20.80;3.35;;;16.60;99.90;;;;;;4954182;28;20043;-56
2022/09/07 04:27:26;;;;;;;13.43;3.15;;;16.60;99.90;;;;;;4955322;28;20164;-57
2022/09/07 04:29:53;;;;;;;13.57;3.35;;;16.60;99.90;;;;;;4954418;28;20098;-57
2022/09/07 04:32:20;;;;;;;12.63;2.80;;;16.70;99.90;;;;;;4954593;28;20050;-56
2022/09/07 04:34:47;;;;;;;15.65;3.10;;;16.70;99.90;;;;;;4954298;28;20040;-55
2022/09/07 04:37:14;;;;;;;13.57;2.83;;;16.70;99.90;;;;;;4953444;28;20051;-57
2022/09/07 04:39:41;;;;;;;17.35;2.97;;;16.70;99.90;;;;;;4955095;28;20039;-57
2022/09/07 04:42:07;;;;;;;13.90;3.20;;;16.60;99.90;;;;;;4955328;28;20118;-57
2022/09/07 04:44:34;;;;;;;8.77;2.33;;;16.60;99.90;;;;;;4957912;28;20518;-56
2022/09/07 04:47:01;;;;;;;11.82;2.90;;;16.50;99.90;;;;;;4957328;28;20106;-57
2022/09/07 04:49:28;;;;;;;12.95;2.40;;;16.50;99.90;;;;;;4958219;28;20119;-57
2022/09/07 04:51:54;;;;;;;11.43;2.78;;;16.50;99.90;;;;;;4958909;29;20080;-57
2022/09/07 04:54:21;;;;;;;11.70;2.72;;;16.40;99.90;;;;;;4957213;29;20051;-55
2022/09/07 04:56:48;;;;;;;12.07;2.33;;;16.40;99.90;;;;;;4957961;29;20110;-57
2022/09/07 04:59:15;;;;;;;12.75;2.05;;;16.30;99.90;;;;;;4958690;29;20070;-56
2022/09/07 05:01:43;;;;;;;15.85;3.65;;;16.30;99.90;;;;;;4956862;29;20039;-55
2022/09/07 05:04:09;;;;;;;14.05;2.40;;;16.20;99.90;;;;;;4957126;28;20046;-57
2022/09/07 05:06:36;;;;;;;15.73;2.83;;;16.20;99.90;;;;;;4958976;28;20467;-57
2022/09/07 05:09:03;;;;;;;13.95;2.75;;;16.10;99.90;;;;;;4958820;28;20070;-57
2022/09/07 05:11:30;;;;;;;15.18;2.65;;;16.10;99.90;;;;;;4956648;28;20050;-57
2022/09/07 05:13:56;;;;;;;13.85;3.03;;;16.10;99.90;;;;;;4957568;29;20082;-55
2022/09/07 05:16:23;;;;;;;13.18;3.05;;;16.10;99.90;;;;;;4957990;28;20043;-61
2022/09/07 05:18:50;;;;;;;15.63;3.08;;;16.00;99.90;;;;;;4957575;29;20055;-57
2022/09/07 05:21:17;;;;;;;15.15;3.13;;;16.00;99.90;;;;;;4958209;29;20098;-57
2022/09/07 05:23:44;;;;;;;15.32;2.70;;;16.00;99.90;;;;;;4956333;29;20044;-57
2022/09/07 05:26:11;;;;;;;14.18;3.70;;;15.90;99.90;;;;;;4958443;28;20048;-57
2022/09/07 05:28:37;;;;;;;20.45;4.45;;;15.90;99.90;;;;;;4957359;28;20498;-57
2022/09/07 05:31:04;;;;;;;16.88;3.08;;;15.90;99.90;;;;;;4955897;28;20446;-56
2022/09/07 05:33:47;;;;;;;16.20;3.08;;;15.80;99.90;;;;;;4958400;28;20110;-56
2022/09/07 05:36:34;;;;;;;17.95;3.90;;;15.80;99.90;;;;;;4955208;29;20101;-55
2022/09/07 05:39:00;;;;;;;19.90;3.80;;;15.80;99.90;;;;;;4957406;28;20066;-57
2022/09/07 05:41:27;;;;;;;19.10;3.55;;;15.80;99.90;;;;;;4957055;28;20039;-56
2022/09/07 05:43:54;;;;;;;20.98;3.17;;;15.80;99.90;;;;;;4957125;28;20040;-56
2022/09/07 05:46:41;;;;;;;23.48;5.10;;;15.80;99.90;;;;;;4957287;29;20051;-57
2022/09/07 05:49:08;;;;;;;22.05;3.90;;;15.80;99.90;;;;;;4957214;28;20487;-55
2022/09/07 05:51:36;;;;;;;27.75;4.97;;;15.80;99.90;;;;;;4957949;28;20043;-57
2022/09/07 05:54:02;;;;;;;20.20;3.70;;;15.80;99.90;;;;;;4956042;28;20071;-57
2022/09/07 05:56:29;;;;;;;18.25;3.60;;;15.80;99.90;;;;;;4954054;28;20047;-55
2022/09/07 05:58:56;;;;;;;22.33;3.67;;;15.80;99.90;;;;;;4954863;29;20499;-54
2022/09/07 06:01:23;;;;;;;17.17;3.42;;;15.80;99.90;;;;;;4956119;29;20043;-59
2022/09/07 06:03:49;;;;;;;21.00;4.30;;;15.70;99.90;;;;;;4955740;28;20043;-56
2022/09/07 06:06:17;;;;;;;20.98;3.72;;;15.80;99.90;;;;;;4955880;29;20494;-57
2022/09/07 06:08:44;;;;;;;23.40;3.60;;;15.70;99.90;;;;;;4956817;28;20048;-55
2022/09/07 06:11:11;;;;;;;13.95;3.28;;;15.80;99.90;;;;;;4956661;28;20066;-57
2022/09/07 06:13:38;;;;;;;21.65;4.32;;;15.80;99.90;;;;;;4954643;29;20047;-54
2022/09/07 06:16:05;;;;;;;16.52;3.67;;;15.80;99.90;;;;;;4955935;28;20043;-55
2022/09/07 06:18:32;;;;;;;22.20;4.00;;;15.90;99.90;;;;;;4949451;29;20036;-58
2022/09/07 06:20:59;;;;;;;19.75;4.47;;;15.90;99.90;;;;;;4948252;29;20055;-56
2022/09/07 06:23:25;;;;;;;15.85;3.92;;;15.90;99.90;;;;;;4951700;28;20399;-57
2022/09/07 06:25:52;;;;;;;18.98;4.05;;;15.90;99.90;;;;;;4955932;29;20486;-55
2022/09/07 06:28:19;;;;;;;18.35;3.63;;;15.90;99.90;;;;;;4957201;28;20051;-56
2022/09/07 06:30:46;;;;;;;17.35;4.22;;;16.00;99.90;;;;;;4957493;28;20053;-57
2022/09/07 06:33:13;;;;;;;21.75;3.92;;;16.00;99.90;;;;;;4953357;29;20050;-57
2022/09/07 06:35:42;;;;;;;22.77;4.05;;;16.00;99.90;;;;;;4954767;28;20043;-56
2022/09/07 06:38:09;;;;;;;16.10;3.88;;;16.10;99.90;;;;;;4953685;28;20340;-55
2022/09/07 06:40:36;;;;;;;24.80;4.20;;;16.10;99.90;;;;;;4957050;28;20046;-55
2022/09/07 06:43:02;;;;;;;18.52;4.30;;;16.10;99.90;;;;;;4954527;28;20043;-56
2022/09/07 06:45:29;;;;;;;21.92;4.45;;;16.20;99.90;;;;;;4955104;29;20066;-58
2022/09/07 06:47:56;;;;;;;23.58;4.38;;;16.20;99.90;;;;;;4955611;29;20127;-58
2022/09/07 06:50:23;;;;;;;18.95;4.60;;;16.20;99.90;;;;;;4955178;28;20043;-57
2022/09/07 06:52:49;;;;;;;19.48;4.05;;;16.20;99.90;;;;;;4956579;28;20046;-58
2022/09/07 06:55:36;;;;;;;19.83;4.28;;;16.30;99.90;;;;;;4955668;29;20446;-57
2022/09/07 06:58:03;;;;;;;19.05;3.83;;;16.30;99.90;;;;;;4953838;28;20043;-58
2022/09/07 07:00:30;;;;;;;20.55;3.30;;;16.40;99.90;;;;;;4954267;29;20058;-57
2022/09/07 07:02:57;;;;;;;22.70;4.10;;;16.40;99.90;;;;;;4954448;28;20043;-55
2022/09/07 07:05:23;;;;;;;18.20;4.28;;;16.40;99.90;;;;;;4953052;28;20073;-58
2022/09/07 07:07:50;;;;;;;29.08;4.50;;;16.40;99.90;;;;;;4955031;28;20443;-58
2022/09/07 07:10:17;;;;;;;17.88;3.53;;;16.50;99.90;;;;;;4952975;28;20035;-57
2022/09/07 07:12:49;;;;;;;20.02;4.20;;;16.50;99.90;;;;;;4947424;28;20478;-58
2022/09/07 07:15:16;;;;;;;17.85;3.95;;;16.60;99.90;;;;;;4956959;28;20051;-58
2022/09/07 07:17:42;;;;;;;16.10;4.15;;;16.70;99.90;;;;;;4953970;28;20515;-59
2022/09/07 07:20:14;;;;;;;21.52;4.30;;;16.70;99.90;;;;;;4955047;28;20047;-59
2022/09/07 07:22:41;;;;;;;16.77;3.53;;;16.80;99.90;;;;;;4947716;28;20087;-58
2022/09/07 07:25:13;;;;;;;18.50;4.20;;;16.90;99.90;;;;;;4955183;28;20054;-58
2022/09/07 07:27:41;;;;;;;20.23;4.35;;;17.00;99.90;;;;;;4942823;29;20047;-57
2022/09/07 07:30:07;;;;;;;15.95;3.35;;;17.10;99.90;;;;;;4954063;29;20032;-58
2022/09/07 07:32:34;;;;;;;18.45;3.58;;;17.10;99.90;;;;;;4954016;28;20051;-57
2022/09/07 07:35:01;;;;;;;20.35;4.70;;;17.20;99.90;;;;;;4956050;28;20475;-59
2022/09/07 07:37:28;;;;;;;15.73;3.45;;;17.20;99.90;;;;;;4954094;28;20043;-58
2022/09/07 07:39:55;;;;;;;21.45;3.70;;;17.30;99.90;;;;;;4956696;28;20501;-58
2022/09/07 07:42:42;;;;;;;16.80;3.33;;;17.40;99.90;;;;;;4953863;29;20049;-58
2022/09/07 07:45:09;;;;;;;16.63;3.28;;;17.50;99.90;;;;;;4953020;29;20086;-58
2022/09/07 07:47:55;;;;;;;20.17;4.20;;;17.50;99.90;;;;;;4951570;28;20059;-58
2022/09/07 07:50:22;;;;;;;18.23;3.42;;;17.60;99.90;;;;;;4949635;28;20114;-57
2022/09/07 07:52:58;;;;;;;19.15;4.32;;;17.60;99.90;;;;;;4946970;28;20474;-58
2022/09/07 07:55:45;;;;;;;22.27;4.22;;;17.70;99.90;;;;;;4955836;29;20051;-56
2022/09/07 07:58:12;;;;;;;16.33;3.88;;;17.70;99.90;;;;;;4954100;28;20122;-57
2022/09/07 08:00:39;;;;;;;22.55;4.38;;;17.70;99.90;;;;;;4954293;28;20175;-58
2022/09/07 08:03:20;;;;;;;16.40;4.30;;;17.70;99.90;;;;;;4954290;28;20122;-58
2022/09/07 08:05:47;;;;;;;22.55;4.22;;;17.70;99.90;;;;;;4952987;28;20122;-57
2022/09/07 08:08:14;;;;;;;23.63;4.45;;;17.80;99.90;;;;;;4953926;28;20113;-55
2022/09/07 08:10:41;;;;;;;20.85;4.05;;;17.80;99.90;;;;;;4953786;28;20048;-59
2022/09/07 08:13:07;;;;;;;20.30;3.92;;;17.80;99.90;;;;;;4955571;28;20138;-58
2022/09/07 08:15:34;;;;;;;20.92;3.85;;;17.90;99.90;;;;;;4952302;28;20486;-58
2022/09/07 08:18:01;;;;;;;21.65;3.92;;;18.00;99.90;;;;;;4954240;28;20047;-58
2022/09/07 08:20:27;;;;;;;19.80;4.28;;;18.10;99.90;;;;;;4953532;28;20043;-55
2022/09/07 08:22:54;;;;;;;24.90;4.00;;;18.20;99.90;;;;;;4954791;28;20586;-57
2022/09/07 08:25:21;;;;;;;19.75;3.80;;;18.20;99.90;;;;;;4955251;28;20039;-55
2022/09/07 08:27:48;;;;;;;17.30;3.38;;;18.30;99.90;;;;;;4955915;28;20098;-56
2022/09/07 08:30:14;;;;;;;16.65;3.50;;;18.30;99.90;;;;;;4955809;28;20043;-57
2022/09/07 08:32:41;;;;;;;19.08;4.05;;;18.30;99.90;;;;;;4954142;28;20134;-55
2022/09/07 08:35:08;;;;;;;22.83;3.45;;;18.40;99.90;;;;;;4955668;28;20122;-57
2022/09/07 08:37:34;;;;;;;17.30;4.15;;;18.40;99.90;;;;;;4949371;28;20055;-57
2022/09/07 08:40:01;;;;;;;18.85;3.97;;;18.50;99.90;;;;;;4945250;29;20122;-58
2022/09/07 08:42:28;;;;;;;20.85;3.63;;;18.50;99.90;;;;;;4954182;29;20102;-57
2022/09/07 08:44:55;;;;;;;17.30;3.58;;;18.60;99.90;;;;;;4954348;28;20055;-58
2022/09/07 08:47:21;;;;;;;19.90;4.22;;;18.70;99.90;;;;;;4953934;28;20554;-58
2022/09/07 08:49:48;;;;;;;18.40;3.65;;;18.80;99.90;;;;;;4953543;28;20435;-57
2022/09/07 08:52:15;;;;;;;16.70;3.55;;;18.80;99.90;;;;;;4954041;28;20094;-58
2022/09/07 08:54:42;;;;;;;15.23;3.53;;;19.00;99.90;;;;;;4953012;28;20050;-59
2022/09/07 08:57:08;;;;;;;19.65;3.85;;;19.10;99.90;;;;;;4953916;28;20495;-57
2022/09/07 08:59:50;;;;;;;22.42;3.97;;;19.20;99.90;;;;;;4954418;29;20494;-58
2022/09/07 09:02:17;;;;;;;14.20;3.28;;;19.30;99.90;;;;;;4953504;28;20039;-57
2022/09/07 09:05:04;;;;;;;16.40;3.78;;;19.30;99.90;;;;;;4954263;29;20049;-57
2022/09/07 09:07:46;;;;;;;18.25;3.53;;;19.30;99.90;;;;;;4954542;28;20507;-59
2022/09/07 09:10:13;;;;;;;22.25;4.20;;;19.30;99.90;;;;;;4954663;28;20098;-58
2022/09/07 09:12:40;;;;;;;19.95;4.43;;;19.20;99.90;;;;;;4953464;28;20415;-58
2022/09/07 09:15:07;;;;;;;18.55;4.70;;;19.20;99.90;;;;;;4954270;29;20054;-57
2022/09/07 09:17:34;;;;;;;17.75;3.85;;;19.10;99.90;;;;;;4954463;28;20043;-58
2022/09/07 09:20:00;;;;;;;12.07;3.25;;;19.10;99.90;;;;;;4950514;29;20055;-57
2022/09/07 09:22:27;;;;;;;15.13;4.10;;;19.10;99.90;;;;;;4953194;28;20039;-58
2022/09/07 09:24:54;;;;;;;18.80;4.10;;;19.10;99.90;;;;;;4954314;28;20063;-56
2022/09/07 09:27:21;;;;;;;14.75;3.53;;;19.20;99.90;;;;;;4949388;29;20519;-57
2022/09/07 09:29:47;;;;;;;15.63;3.30;;;19.30;99.90;;;;;;4955273;28;20044;-58
2022/09/07 09:32:14;;;;;;;14.77;3.63;;;19.40;99.90;;;;;;4957673;28;20562;-56
2022/09/07 09:34:41;;;;;;;14.02;3.65;;;19.50;99.90;;;;;;4951289;29;20054;-57
2022/09/07 09:37:07;;;;;;;17.17;3.78;;;19.50;99.90;;;;;;4946162;29;20079;-58
2022/09/07 09:39:34;;;;;;;10.60;3.22;;;19.60;99.90;;;;;;4957794;29;20520;-58
2022/09/07 09:42:01;;;;;;;16.40;3.30;;;19.70;99.90;;;;;;4956776;29;20047;-58
2022/09/07 09:44:28;;;;;;;15.77;3.58;;;19.80;99.90;;;;;;4957725;28;20062;-59
2022/09/07 09:46:55;;;;;;;24.33;4.15;;;19.90;99.90;;;;;;4956912;28;20550;-57
2022/09/07 09:49:42;;;;;;;19.33;3.78;;;20.00;99.90;;;;;;4957665;29;20467;-57
2022/09/07 09:52:08;;;;;;;15.38;3.47;;;20.20;99.90;;;;;;4957506;28;20102;-58
2022/09/07 09:54:55;;;;;;;22.92;4.03;;;20.20;99.90;;;;;;4957692;28;20402;-57
2022/09/07 09:57:37;;;;;;;16.15;3.63;;;20.20;99.90;;;;;;4957590;28;20050;-57
2022/09/07 10:00:04;;;;;;;18.33;3.58;;;20.30;99.90;;;;;;4957536;28;20122;-59
2022/09/07 10:02:38;;;;;;;18.83;3.42;;;20.30;99.90;;;;;;4957714;28;20394;-57
2022/09/07 10:05:24;;;;;;;19.17;3.63;;;20.30;99.90;;;;;;4956529;29;20043;-57
2022/09/07 10:07:51;;;;;;;15.27;3.35;;;20.30;99.90;;;;;;4956287;29;20043;-58
2022/09/07 10:10:18;;;;;;;17.27;3.60;;;20.30;99.90;;;;;;4955391;29;20107;-57
2022/09/07 10:12:44;;;;;;;15.38;3.22;;;20.20;99.90;;;;;;4957285;28;20439;-56
2022/09/07 10:15:11;;;;;;;20.58;3.90;;;20.00;99.90;;;;;;4956107;28;20043;-57
2022/09/07 10:17:38;;;;;;;10.75;2.95;;;19.90;99.90;;;;;;4957118;28;20047;-58
2022/09/07 10:20:04;;;;;;;16.50;3.30;;;19.80;99.90;;;;;;4957417;28;20474;-57
2022/09/07 10:22:31;;;;;;;12.43;3.10;;;19.70;99.90;;;;;;4956789;28;20046;-59
2022/09/07 10:24:59;;;;;;;13.88;3.20;;;19.70;99.90;;;;;;4956326;28;20122;-59
2022/09/07 10:27:26;;;;;;;14.00;3.42;;;19.70;99.90;;;;;;4957076;28;20039;-58
2022/09/07 10:29:53;;;;;;;14.07;3.15;;;19.70;99.90;;;;;;4956248;28;20122;-58
2022/09/07 10:32:19;;;;;;;17.02;3.88;;;19.70;99.90;;;;;;4957291;28;20559;-59
2022/09/07 10:34:46;;;;;;;18.42;3.55;;;19.60;99.90;;;;;;4954945;28;20558;-58
2022/09/07 10:37:13;;;;;;;15.60;3.20;;;19.60;99.90;;;;;;4957119;28;20039;-56
2022/09/07 10:39:40;;;;;;;17.73;3.55;;;19.60;99.90;;;;;;4956584;28;20122;-58
2022/09/07 10:42:06;;;;;;;17.30;4.20;;;19.70;99.90;;;;;;4955967;28;20485;-56
2022/09/07 10:44:33;;;;;;;17.15;3.85;;;19.70;99.90;;;;;;4956672;28;20102;-58
2022/09/07 10:47:00;;;;;;;17.98;3.80;;;19.70;99.90;;;;;;4955970;28;20527;-57
2022/09/07 10:49:27;;;;;;;18.85;3.92;;;19.80;99.90;;;;;;4956876;29;20446;-59
2022/09/07 10:51:54;;;;;;;22.00;4.07;;;19.90;99.90;;;;;;4956505;28;20402;-58
2022/09/07 10:54:20;;;;;;;16.08;3.75;;;19.90;99.90;;;;;;4956640;28;20082;-59
2022/09/07 10:56:56;;;;;;;17.90;3.80;;;20.00;99.90;;;;;;4955936;29;20368;-59
2022/09/07 10:59:22;;;;;;;44.38;5.55;;;20.10;99.90;;;;;;4956276;28;20078;-57
2022/09/07 11:01:49;;;;;;;15.48;3.85;;;20.20;99.90;;;;;;4956176;28;20098;-58
2022/09/07 11:04:16;;;;;;;15.30;3.58;;;20.30;99.90;;;;;;4955973;28;20045;-58
2022/09/07 11:06:43;;;;;;;18.63;3.85;;;20.40;99.90;;;;;;4956477;28;20047;-57
2022/09/07 11:09:10;;;;;;;13.30;3.50;;;20.40;99.90;;;;;;4956396;28;20067;-57
2022/09/07 11:11:45;;;;;;;15.15;3.22;;;20.50;99.90;;;;;;4956235;28;20043;-57
2022/09/07 11:14:29;;;;;;;12.60;2.80;;;20.60;99.90;;;;;;4955972;28;20077;-58
2022/09/07 11:16:55;;;;;;;14.48;3.45;;;20.70;99.90;;;;;;4956086;28;20077;-58
2022/09/07 11:19:22;;;;;;;19.50;3.40;;;20.80;99.90;;;;;;4956084;28;20049;-56
2022/09/07 11:22:05;;;;;;;17.55;3.10;;;20.90;99.90;;;;;;4956035;28;20047;-57
2022/09/07 11:24:31;;;;;;;12.10;2.80;;;20.90;99.90;;;;;;4955640;28;20110;-57
2022/09/07 11:26:58;;;;;;;12.48;3.40;;;21.00;99.90;;;;;;4955785;28;20094;-56
2022/09/07 11:29:25;;;;;;;12.80;3.05;;;21.00;99.90;;;;;;4955765;28;20098;-56
2022/09/07 11:31:55;;;;;;;11.98;3.00;;;21.20;99.90;;;;;;4947938;28;20090;-56
2022/09/07 11:34:22;;;;;;;13.52;2.60;;;21.30;99.90;;;;;;4949757;28;20051;-56
2022/09/07 11:36:50;;;;;;;14.30;3.05;;;21.30;99.90;;;;;;4952063;29;20054;-57
2022/09/07 11:39:17;;;;;;;14.70;2.83;;;21.40;99.90;;;;;;4947754;29;20051;-58
2022/09/07 11:41:44;;;;;;;10.57;2.90;;;21.50;99.90;;;;;;4954717;29;20067;-58
2022/09/07 11:44:12;;;;;;;12.88;2.97;;;21.50;99.60;;;;;;4954650;28;20039;-57
2022/09/07 11:46:39;;;;;;;10.90;2.80;;;21.50;99.00;;;;;;4954895;28;20541;-55
2022/09/07 11:49:05;;;;;;;13.13;3.13;;;21.60;99.40;;;;;;4953247;28;20115;-58
2022/09/07 11:51:32;;;;;;;11.45;2.90;;;21.60;99.30;;;;;;4953696;29;20039;-58
2022/09/07 11:53:59;;;;;;;10.38;2.55;;;21.60;98.80;;;;;;4952607;28;20047;-57
2022/09/07 11:56:26;;;;;;;13.07;3.08;;;21.70;99.30;;;;;;4952471;29;20035;-58
2022/09/07 11:58:52;;;;;;;12.60;3.03;;;21.70;98.90;;;;;;4951900;29;20051;-57
2022/09/07 12:01:19;;;;;;;15.10;3.60;;;21.70;99.10;;;;;;4938717;29;20458;-57
2022/09/07 12:03:46;;;;;;;8.98;2.22;;;21.70;98.30;;;;;;4952956;28;20046;-58
2022/09/07 12:06:13;;;;;;;14.85;3.30;;;21.70;98.20;;;;;;4951871;28;20047;-58
2022/09/07 12:08:39;;;;;;;16.88;3.10;;;21.70;98.50;;;;;;4952554;28;20514;-58
2022/09/07 12:11:06;;;;;;;11.85;2.83;;;21.80;98.70;;;;;;4952971;28;20078;-59
2022/09/07 12:13:33;;;;;;;13.65;2.75;;;21.90;98.50;;;;;;4951777;28;20047;-57
2022/09/07 12:16:00;;;;;;;16.45;2.80;;;22.00;98.30;;;;;;4950422;29;20073;-56
2022/09/07 12:18:27;;;;;;;15.40;2.70;;;22.20;98.20;;;;;;4954029;28;20517;-58
2022/09/07 12:20:54;;;;;;;12.25;3.35;;;22.20;98.40;;;;;;4950208;29;20114;-58
2022/09/07 12:23:21;;;;;;;13.65;3.42;;;22.20;98.40;;;;;;4953110;28;20074;-55
2022/09/07 12:25:47;;;;;;;11.80;3.10;;;22.30;98.30;;;;;;4952580;28;20372;-57
2022/09/07 12:28:14;;;;;;;12.43;2.95;;;22.30;98.30;;;;;;4950708;29;20046;-55
2022/09/07 12:30:47;;;;;;;17.10;2.92;;;22.40;98.40;;;;;;4953507;28;20059;-56
2022/09/07 12:33:14;;;;;;;15.48;3.00;;;22.30;97.80;;;;;;4952717;28;20044;-58
2022/09/07 12:35:41;;;;;;;10.82;2.88;;;22.30;97.70;;;;;;4952620;28;20075;-56
2022/09/07 12:38:08;;;;;;;13.45;3.60;;;22.30;97.40;;;;;;4954965;28;20067;-56
2022/09/07 12:40:35;;;;;;;12.80;3.15;;;22.30;97.60;;;;;;4950382;28;20059;-59